KESF

Esler Regional Airport

Alexandria, Louisiana, USA
METAR KESF 211553Z AUTO 14009KT 10SM CLR 05/M01 A3038 RMK AO2 SLP287 T00501011
Observed Flight Rules
Jan-21 @ 15:53 UTC (33 minutes ago) Visual Flight Rules
Wind Visibility Clouds
140° at 9 knots 10 miles
  • Clear skies
Temperatures Readings
Current 5°C / 41°F
Dewpoint -1°C / 30°F
Humidity 66%
Altimeter 30.38" Hg
Pressure 1028.7 hPa
Elevation 28
METAR KESF 211553Z AUTO 14009KT 10SM CLR 05/M01 A3038 RMK AO2 SLP287 T00501011
Observed Flight Rules
Jan-21 @ 15:53 UTC
(33 minutes ago)
VFR
Wind Visibility
140° at 9 knots 10 miles
Clouds
  • Clear skies
Temperature Dewpoint
5°C / 41°F -1°C / 30°F
Humidity Altimeter Pressure
66% 30.38" Hg 1028.7 hPa